Time;durP1;ratioP1;P1;durP2;ratioP2;P2;SDS_P1;SDS_P2;PMS_P1;PMS_P2;Temp;Humidity;BMP_temperature;BMP_pressure;BME280_temperature;BME280_humidity;BME280_pressure;Samples;Min_cycle;Max_cycle;Signal;HPM_P1;HPM_P2
2023/04/23 00:02:02;;;;;;;4.43;3.37;;;13.10;99.90;;;;;;4880554;29;20310;-78
2023/04/23 00:04:35;;;;;;;4.33;3.17;;;13.10;99.90;;;;;;4880170;29;20633;-75
2023/04/23 00:07:05;;;;;;;5.80;3.30;;;13.10;99.90;;;;;;4880360;29;20696;-76
2023/04/23 00:09:35;;;;;;;4.57;3.00;;;13.00;99.90;;;;;;4880151;29;20289;-77
2023/04/23 00:12:06;;;;;;;3.60;2.90;;;13.00;99.90;;;;;;4880013;29;20367;-76
2023/04/23 00:14:34;;;;;;;5.07;3.20;;;13.00;99.90;;;;;;4880570;29;20199;-77
2023/04/23 00:17:02;;;;;;;6.60;3.10;;;13.00;99.90;;;;;;4880088;29;20211;-76
2023/04/23 00:19:36;;;;;;;4.53;3.00;;;13.00;99.90;;;;;;4880200;29;20222;-75
2023/04/23 00:22:06;;;;;;;5.03;3.40;;;13.00;99.90;;;;;;4879534;29;20723;-75
2023/04/23 00:24:35;;;;;;;6.13;3.40;;;13.00;99.90;;;;;;4880196;29;20217;-78
2023/04/23 00:27:04;;;;;;;7.67;3.30;;;13.00;99.90;;;;;;4887090;29;20232;-77
2023/04/23 00:29:32;;;;;;;4.77;3.30;;;13.00;99.90;;;;;;4917671;29;20225;-78
2023/04/23 00:32:00;;;;;;;6.73;3.40;;;13.00;99.90;;;;;;4916756;29;20213;-77
2023/04/23 00:34:29;;;;;;;4.80;3.70;;;13.00;99.90;;;;;;4917746;29;20213;-77
2023/04/23 00:36:57;;;;;;;6.70;3.73;;;12.90;99.90;;;;;;4899322;29;20245;-77
2023/04/23 00:39:27;;;;;;;4.50;3.40;;;12.90;99.90;;;;;;4899167;29;20267;-75
2023/04/23 00:41:55;;;;;;;5.30;3.60;;;12.90;99.90;;;;;;4886400;29;20305;-77
2023/04/23 00:44:23;;;;;;;4.97;3.43;;;12.90;99.90;;;;;;4885296;29;20220;-77
2023/04/23 00:46:53;;;;;;;4.37;3.37;;;12.90;99.90;;;;;;4895767;29;20241;-79
2023/04/23 00:49:23;;;;;;;5.93;3.90;;;12.80;99.90;;;;;;4894131;29;20632;-79
2023/04/23 00:51:51;;;;;;;5.07;3.40;;;12.80;99.90;;;;;;4877438;29;20218;-79
2023/04/23 00:54:19;;;;;;;4.80;3.70;;;12.80;99.90;;;;;;4880833;29;20202;-79
2023/04/23 00:56:48;;;;;;;5.30;3.97;;;12.70;99.90;;;;;;4896464;29;20234;-77
2023/04/23 00:59:16;;;;;;;4.10;3.50;;;12.70;99.90;;;;;;4882928;29;20221;-80
2023/04/23 01:01:45;;;;;;;4.50;3.40;;;12.70;99.90;;;;;;4879045;29;20684;-78
2023/04/23 01:04:14;;;;;;;5.00;3.40;;;12.70;99.90;;;;;;4879014;29;20229;-78
2023/04/23 01:06:43;;;;;;;7.63;3.43;;;12.60;99.90;;;;;;4878792;29;20656;-79
2023/04/23 01:09:11;;;;;;;4.73;3.60;;;12.60;99.90;;;;;;4879203;29;20225;-77
2023/04/23 01:11:42;;;;;;;5.10;3.80;;;12.60;99.90;;;;;;4878932;29;20218;-77
2023/04/23 01:14:12;;;;;;;4.87;3.50;;;12.60;99.90;;;;;;4878876;29;20233;-77
2023/04/23 01:16:39;;;;;;;5.37;3.43;;;12.60;99.90;;;;;;4879222;29;20214;-80
2023/04/23 01:19:09;;;;;;;9.70;3.73;;;12.50;99.90;;;;;;4878898;29;20622;-77
2023/04/23 01:21:40;;;;;;;4.60;3.40;;;12.50;99.90;;;;;;4879297;29;20226;-74
2023/04/23 01:24:11;;;;;;;5.57;3.50;;;12.50;99.90;;;;;;4878793;29;20218;-77
2023/04/23 01:26:39;;;;;;;4.63;3.70;;;12.50;99.90;;;;;;4879578;29;20522;-76
2023/04/23 01:29:08;;;;;;;4.87;3.60;;;12.50;99.90;;;;;;4879191;29;20228;-75
2023/04/23 01:31:37;;;;;;;5.63;3.83;;;12.50;99.90;;;;;;4889012;29;20209;-77
2023/04/23 01:34:05;;;;;;;5.93;3.83;;;12.50;99.90;;;;;;4897362;29;20217;-77
2023/04/23 01:36:35;;;;;;;7.23;4.20;;;12.50;99.90;;;;;;4897431;29;20587;-78
2023/04/23 01:39:03;;;;;;;7.00;4.50;;;12.60;99.90;;;;;;4897589;29;20213;-78
2023/04/23 01:41:33;;;;;;;10.53;4.20;;;12.60;99.90;;;;;;4882476;29;20218;-77
2023/04/23 01:44:02;;;;;;;4.50;3.60;;;12.50;99.90;;;;;;4891681;29;20755;-77
2023/04/23 01:46:30;;;;;;;4.80;3.33;;;12.60;99.90;;;;;;4896962;29;20591;-76
2023/04/23 01:48:58;;;;;;;4.43;3.40;;;12.60;99.90;;;;;;4896498;29;20213;-77
2023/04/23 01:51:27;;;;;;;5.97;3.90;;;12.50;99.90;;;;;;4878005;29;20665;-76
2023/04/23 01:53:55;;;;;;;6.97;3.73;;;12.50;99.90;;;;;;4878142;29;20210;-76
2023/04/23 01:56:25;;;;;;;5.60;3.67;;;12.50;99.90;;;;;;4878173;29;20354;-80
2023/04/23 01:58:55;;;;;;;5.20;3.63;;;12.50;99.90;;;;;;4878245;29;20240;-77
2023/04/23 02:01:23;;;;;;;6.37;3.80;;;12.50;99.90;;;;;;4877912;29;20218;-75
2023/04/23 02:03:51;;;;;;;6.03;3.80;;;12.50;99.90;;;;;;4877502;29;20246;-75
2023/04/23 02:06:19;;;;;;;4.43;3.47;;;12.50;99.90;;;;;;4878124;29;20227;-77
2023/04/23 02:08:48;;;;;;;4.50;3.80;;;12.50;99.90;;;;;;4878082;29;20214;-76
2023/04/23 02:11:16;;;;;;;4.80;3.70;;;12.40;99.90;;;;;;4878081;29;20214;-78
2023/04/23 02:13:45;;;;;;;6.30;4.00;;;12.40;99.90;;;;;;4877313;29;20234;-77
2023/04/23 02:16:14;;;;;;;5.93;4.30;;;12.50;99.90;;;;;;4877670;29;20688;-78
2023/04/23 02:18:43;;;;;;;6.37;4.13;;;12.40;99.90;;;;;;4878086;29;20263;-76
2023/04/23 02:21:11;;;;;;;6.80;4.23;;;12.40;99.90;;;;;;4878222;29;20304;-79
2023/04/23 02:23:43;;;;;;;6.80;4.03;;;12.40;99.90;;;;;;4877699;29;20229;-78
2023/04/23 02:26:12;;;;;;;4.80;4.17;;;12.40;99.90;;;;;;4877686;29;20214;-79
2023/04/23 02:28:40;;;;;;;6.23;4.83;;;12.50;99.90;;;;;;4878022;29;20222;-77
2023/04/23 02:31:08;;;;;;;7.73;4.30;;;12.40;99.90;;;;;;4878029;29;20251;-79
2023/04/23 02:33:37;;;;;;;5.53;4.43;;;12.40;99.90;;;;;;4877698;29;20217;-77
2023/04/23 02:36:06;;;;;;;6.47;4.33;;;12.40;99.90;;;;;;4880812;29;20222;-77
2023/04/23 02:38:34;;;;;;;5.57;4.10;;;12.40;99.90;;;;;;4881584;29;20305;-78
2023/04/23 02:41:02;;;;;;;8.07;4.60;;;12.40;99.90;;;;;;4883107;29;20214;-78
2023/04/23 02:43:30;;;;;;;7.63;4.00;;;12.40;99.90;;;;;;4881813;29;20222;-75
2023/04/23 02:45:58;;;;;;;6.20;3.93;;;12.30;99.90;;;;;;4881775;29;20244;-78
2023/04/23 02:48:28;;;;;;;7.20;4.60;;;12.30;99.90;;;;;;4881484;29;20700;-76
2023/04/23 02:50:58;;;;;;;6.70;4.50;;;12.20;99.90;;;;;;4881734;29;20238;-75
2023/04/23 02:53:26;;;;;;;6.90;4.53;;;12.20;99.90;;;;;;4881558;29;20222;-76
2023/04/23 02:55:54;;;;;;;6.33;4.60;;;12.20;99.90;;;;;;4881830;29;20234;-75
2023/04/23 02:58:22;;;;;;;7.03;4.60;;;12.10;99.90;;;;;;4880816;29;20210;-76
2023/04/23 03:00:50;;;;;;;7.10;4.50;;;12.10;99.90;;;;;;4881528;29;20215;-79
2023/04/23 03:03:18;;;;;;;5.20;4.40;;;12.10;99.90;;;;;;4882168;29;20254;-76
2023/04/23 03:05:47;;;;;;;5.80;4.67;;;12.10;99.90;;;;;;4880815;29;20695;-79
2023/04/23 03:08:17;;;;;;;6.87;4.60;;;12.10;99.90;;;;;;4881064;29;20320;-79
2023/04/23 03:10:45;;;;;;;6.33;4.77;;;12.00;99.90;;;;;;4880745;29;20686;-74
2023/04/23 03:13:13;;;;;;;8.53;4.70;;;12.10;99.90;;;;;;4880702;29;20219;-79
2023/04/23 03:15:41;;;;;;;9.33;5.13;;;12.00;99.90;;;;;;4880619;29;20353;-77
2023/04/23 03:18:09;;;;;;;6.57;4.80;;;12.10;99.90;;;;;;4880673;29;20297;-79
2023/04/23 03:20:37;;;;;;;6.03;4.77;;;12.00;99.90;;;;;;4880837;29;20210;-79
2023/04/23 03:23:06;;;;;;;6.80;5.07;;;12.00;99.90;;;;;;4880579;29;20214;-79
2023/04/23 03:25:35;;;;;;;7.27;4.90;;;12.00;99.90;;;;;;4881037;29;20236;-77
2023/04/23 03:28:04;;;;;;;6.60;4.97;;;12.00;99.90;;;;;;4880184;29;20232;-76
2023/04/23 03:30:32;;;;;;;8.70;4.70;;;12.00;99.90;;;;;;4880556;29;20233;-79
2023/04/23 03:33:01;;;;;;;6.73;5.27;;;12.00;99.90;;;;;;4880779;29;20221;-78
2023/04/23 03:35:29;;;;;;;7.60;5.00;;;12.00;99.90;;;;;;4880728;29;20206;-78
2023/04/23 03:37:57;;;;;;;8.27;4.90;;;11.90;99.90;;;;;;4880664;29;20214;-76
2023/04/23 03:40:25;;;;;;;7.83;5.07;;;11.90;99.90;;;;;;4888019;29;20288;-78
2023/04/23 03:42:56;;;;;;;6.87;5.20;;;11.90;99.90;;;;;;4899161;29;20210;-77
2023/04/23 03:45:25;;;;;;;7.07;5.13;;;11.90;99.90;;;;;;4885629;29;20214;-76
2023/04/23 03:47:53;;;;;;;5.70;4.33;;;11.90;99.90;;;;;;4880962;29;20238;-77
2023/04/23 03:50:21;;;;;;;7.57;5.07;;;11.90;99.90;;;;;;4898260;29;20253;-76
2023/04/23 03:52:52;;;;;;;6.53;4.60;;;11.90;99.90;;;;;;4898672;29;20222;-78
2023/04/23 03:55:21;;;;;;;7.00;4.87;;;11.90;99.90;;;;;;4883432;29;20221;-76
2023/04/23 03:57:49;;;;;;;6.80;4.60;;;11.90;99.90;;;;;;4880321;29;20214;-76
2023/04/23 04:00:18;;;;;;;6.67;4.73;;;11.90;99.90;;;;;;4880204;29;20318;-76
2023/04/23 04:02:46;;;;;;;7.60;4.67;;;11.90;99.90;;;;;;4879912;29;20210;-76
2023/04/23 04:05:15;;;;;;;7.53;4.47;;;11.90;99.90;;;;;;4880101;29;20245;-75
2023/04/23 04:07:44;;;;;;;6.13;5.10;;;11.90;99.90;;;;;;4880232;29;20317;-77
2023/04/23 04:10:12;;;;;;;7.47;4.77;;;11.90;99.90;;;;;;4880189;29;20218;-77
2023/04/23 04:12:40;;;;;;;5.50;4.63;;;12.00;99.90;;;;;;4880079;29;20222;-76
2023/04/23 04:15:09;;;;;;;7.77;4.80;;;12.00;99.90;;;;;;4880245;29;20222;-76
2023/04/23 04:17:39;;;;;;;7.30;5.23;;;12.00;99.90;;;;;;4879800;29;20210;-78
2023/04/23 04:20:09;;;;;;;5.93;4.53;;;12.00;99.90;;;;;;4880524;29;20316;-77
2023/04/23 04:22:38;;;;;;;7.80;4.60;;;12.00;99.90;;;;;;4879722;29;20210;-77
2023/04/23 04:25:07;;;;;;;6.23;5.00;;;12.00;99.90;;;;;;4880325;29;20214;-75
2023/04/23 04:27:36;;;;;;;6.50;4.63;;;11.90;99.90;;;;;;4880461;29;20230;-77
2023/04/23 04:30:06;;;;;;;7.20;5.10;;;11.90;99.90;;;;;;4879386;29;20317;-78
2023/04/23 04:32:34;;;;;;;10.53;5.23;;;11.90;99.90;;;;;;4879780;29;20218;-76
2023/04/23 04:35:04;;;;;;;9.00;5.70;;;11.90;99.90;;;;;;4879697;29;20236;-79
2023/04/23 04:37:32;;;;;;;7.97;5.70;;;11.90;99.90;;;;;;4879898;29;20309;-75
2023/04/23 04:40:03;;;;;;;7.77;5.70;;;11.90;99.90;;;;;;4894322;29;20217;-78
2023/04/23 04:42:32;;;;;;;7.53;5.13;;;11.90;99.90;;;;;;4897895;29;20221;-78
2023/04/23 04:45:00;;;;;;;5.83;4.23;;;12.00;99.90;;;;;;4897873;29;20249;-79
2023/04/23 04:47:28;;;;;;;8.27;4.90;;;12.00;99.90;;;;;;4897942;29;20687;-78
2023/04/23 04:49:56;;;;;;;6.17;4.77;;;12.00;99.90;;;;;;4882468;29;20214;-77
2023/04/23 04:52:26;;;;;;;7.13;4.83;;;12.00;99.90;;;;;;4879015;29;20673;-77
2023/04/23 04:54:55;;;;;;;5.83;4.50;;;12.00;99.90;;;;;;4879688;29;20229;-78
2023/04/23 04:57:23;;;;;;;6.13;4.70;;;12.00;99.90;;;;;;4884173;29;20324;-77
2023/04/23 04:59:51;;;;;;;7.07;4.70;;;12.00;99.90;;;;;;4890075;29;20215;-78
2023/04/23 05:02:20;;;;;;;7.03;4.97;;;12.10;99.90;;;;;;4887134;29;20214;-78
2023/04/23 05:04:49;;;;;;;5.10;4.60;;;12.10;99.90;;;;;;4887471;29;20214;-78
2023/04/23 05:07:17;;;;;;;6.70;4.73;;;12.10;99.90;;;;;;4889203;29;20218;-80
2023/04/23 05:09:47;;;;;;;5.80;4.57;;;12.10;99.90;;;;;;4888710;29;20233;-78
2023/04/23 05:12:15;;;;;;;9.20;4.63;;;12.20;99.90;;;;;;4888309;29;20217;-78
2023/04/23 05:14:43;;;;;;;6.00;4.37;;;12.10;99.90;;;;;;4889047;29;20679;-77
2023/04/23 05:17:11;;;;;;;6.23;4.33;;;12.10;99.90;;;;;;4888246;29;20309;-79
2023/04/23 05:19:40;;;;;;;6.07;4.70;;;12.10;99.90;;;;;;4887155;29;20206;-78
2023/04/23 05:22:08;;;;;;;6.00;4.40;;;12.10;99.90;;;;;;4889380;29;20218;-79
2023/04/23 05:24:36;;;;;;;6.73;4.20;;;12.10;99.90;;;;;;4889541;29;20209;-75
2023/04/23 05:27:05;;;;;;;6.77;4.30;;;12.10;99.90;;;;;;4887482;29;20203;-74
2023/04/23 05:29:33;;;;;;;5.60;4.40;;;12.10;99.90;;;;;;4886793;29;20224;-78
2023/04/23 05:32:02;;;;;;;8.37;4.63;;;12.10;99.90;;;;;;4888967;29;20669;-76
2023/04/23 05:34:30;;;;;;;5.53;4.10;;;12.10;99.90;;;;;;4887406;29;20210;-76
2023/04/23 05:36:58;;;;;;;6.20;4.27;;;12.10;99.90;;;;;;4888567;29;20220;-76
2023/04/23 05:39:26;;;;;;;6.23;4.47;;;12.10;99.90;;;;;;4890369;29;20205;-78
2023/04/23 05:41:54;;;;;;;5.53;4.30;;;12.00;99.90;;;;;;4878762;29;20214;-75
2023/04/23 05:44:24;;;;;;;5.27;4.07;;;12.10;99.90;;;;;;4883515;29;20558;-77
2023/04/23 05:46:52;;;;;;;5.43;4.07;;;12.10;99.90;;;;;;4884993;29;20332;-79
2023/04/23 05:49:20;;;;;;;6.47;4.60;;;12.10;99.90;;;;;;4889731;29;20229;-77
2023/04/23 05:51:48;;;;;;;5.63;4.47;;;12.10;99.90;;;;;;4901422;29;20217;-77
2023/04/23 05:54:16;;;;;;;5.53;4.17;;;12.10;99.90;;;;;;4898588;29;20632;-78
2023/04/23 05:56:44;;;;;;;6.83;4.50;;;12.10;99.90;;;;;;4890481;29;20688;-76
2023/04/23 05:59:12;;;;;;;7.40;4.20;;;12.00;99.90;;;;;;4883838;29;20218;-76
2023/04/23 06:01:42;;;;;;;7.37;4.07;;;12.00;99.90;;;;;;4882616;29;20268;-75
2023/04/23 06:04:10;;;;;;;7.50;4.50;;;12.00;99.90;;;;;;4889846;29;20213;-75
2023/04/23 06:06:39;;;;;;;8.57;4.30;;;12.00;99.90;;;;;;4911575;29;20201;-77
2023/04/23 06:09:07;;;;;;;5.40;4.13;;;12.10;99.90;;;;;;4893179;29;20321;-76
2023/04/23 06:11:35;;;;;;;5.53;4.10;;;12.10;99.90;;;;;;4897012;29;20300;-75
2023/04/23 06:14:04;;;;;;;6.30;4.30;;;12.10;99.90;;;;;;4904011;29;20309;-75
2023/04/23 06:16:32;;;;;;;6.87;4.60;;;12.20;99.90;;;;;;4878005;29;20697;-75
2023/04/23 06:19:01;;;;;;;6.23;4.47;;;12.20;99.90;;;;;;4878934;29;20206;-78
2023/04/23 06:21:33;;;;;;;6.30;4.47;;;12.30;99.90;;;;;;4878427;29;20228;-79
2023/04/23 06:24:02;;;;;;;5.67;4.60;;;12.20;99.90;;;;;;4878331;29;20230;-77
2023/04/23 06:26:30;;;;;;;5.17;4.30;;;12.20;99.90;;;;;;4878577;29;20214;-75
2023/04/23 06:29:00;;;;;;;6.67;4.70;;;12.30;99.90;;;;;;4878073;29;20234;-73
2023/04/23 06:31:28;;;;;;;6.17;4.77;;;12.30;99.90;;;;;;4878005;29;20307;-80
2023/04/23 06:33:57;;;;;;;6.23;4.50;;;12.30;99.90;;;;;;4877876;29;20214;-78
2023/04/23 06:36:27;;;;;;;13.00;9.20;;;12.30;99.90;;;;;;4887048;29;20217;-78
2023/04/23 06:38:55;;;;;;;7.47;5.50;;;12.40;99.90;;;;;;4897247;29;20245;-78
2023/04/23 06:41:23;;;;;;;6.50;4.77;;;12.40;99.90;;;;;;4892830;29;20770;-73
2023/04/23 06:43:51;;;;;;;5.60;4.00;;;12.30;99.90;;;;;;4877973;29;20214;-76
2023/04/23 06:46:19;;;;;;;7.13;4.40;;;12.30;99.90;;;;;;4878217;29;20214;-76
2023/04/23 06:48:47;;;;;;;6.87;4.57;;;12.30;99.90;;;;;;4878177;29;20238;-78
2023/04/23 06:51:16;;;;;;;6.23;4.40;;;12.20;99.90;;;;;;4878301;29;20217;-78
2023/04/23 06:53:46;;;;;;;5.40;4.40;;;12.30;99.90;;;;;;4878247;29;20230;-79
2023/04/23 06:56:14;;;;;;;5.97;4.03;;;12.30;99.90;;;;;;4878195;29;20281;-75
2023/04/23 06:58:42;;;;;;;6.80;4.33;;;12.30;99.90;;;;;;4878159;29;20222;-77
2023/04/23 07:01:11;;;;;;;6.50;4.47;;;12.10;99.90;;;;;;4884451;29;20684;-78
2023/04/23 07:03:43;;;;;;;5.40;4.67;;;12.10;99.90;;;;;;4890470;29;20561;-76
2023/04/23 07:06:13;;;;;;;6.20;4.70;;;12.10;99.90;;;;;;4896562;29;20202;-76
2023/04/23 07:08:43;;;;;;;4.73;4.17;;;12.00;99.90;;;;;;4896318;29;20224;-75
2023/04/23 07:11:13;;;;;;;6.63;4.40;;;12.00;99.90;;;;;;4888989;29;20237;-75
2023/04/23 07:13:42;;;;;;;7.40;4.87;;;12.00;99.90;;;;;;4887620;29;20210;-78
2023/04/23 07:16:10;;;;;;;7.07;4.67;;;12.00;99.90;;;;;;4891734;29;20210;-74
2023/04/23 07:18:38;;;;;;;5.53;4.53;;;11.90;99.90;;;;;;4880527;29;20266;-76
2023/04/23 07:21:06;;;;;;;6.77;4.60;;;11.90;99.90;;;;;;4879594;29;20557;-74
2023/04/23 07:23:34;;;;;;;5.50;4.43;;;11.90;99.90;;;;;;4896250;29;20637;-79
2023/04/23 07:26:02;;;;;;;6.80;4.80;;;11.90;99.90;;;;;;4887153;29;20222;-75
2023/04/23 07:28:32;;;;;;;5.37;4.30;;;11.90;99.90;;;;;;4900266;29;20221;-78
2023/04/23 07:31:00;;;;;;;6.83;4.57;;;11.90;99.90;;;;;;4899907;29;20234;-78
2023/04/23 07:33:28;;;;;;;6.63;4.70;;;11.80;99.90;;;;;;4900473;29;20684;-78
2023/04/23 07:35:57;;;;;;;6.40;5.23;;;11.80;99.90;;;;;;4885275;29;20214;-78
2023/04/23 07:38:25;;;;;;;6.87;4.93;;;11.70;99.90;;;;;;4882085;29;20590;-77
2023/04/23 07:40:53;;;;;;;6.13;4.83;;;11.60;99.90;;;;;;4881658;29;20211;-75
2023/04/23 07:43:21;;;;;;;8.67;5.10;;;11.70;99.90;;;;;;4890021;29;20213;-75
2023/04/23 07:45:50;;;;;;;6.03;4.90;;;11.70;99.90;;;;;;4898885;29;20213;-75
2023/04/23 07:48:19;;;;;;;5.87;4.30;;;11.70;99.90;;;;;;4899800;29;20348;-79
2023/04/23 07:50:47;;;;;;;8.27;4.40;;;11.70;99.90;;;;;;4900075;29;20240;-77
2023/04/23 07:53:15;;;;;;;7.50;4.50;;;11.60;99.90;;;;;;4900068;29;20307;-77
2023/04/23 07:55:43;;;;;;;5.30;4.23;;;11.60;99.90;;;;;;4884962;29;20242;-78
2023/04/23 07:58:11;;;;;;;6.70;3.93;;;11.70;99.90;;;;;;4879191;29;20637;-77
2023/04/23 08:00:40;;;;;;;7.03;4.37;;;11.70;99.90;;;;;;4880134;29;20210;-75
2023/04/23 08:03:10;;;;;;;6.30;5.27;;;11.70;99.90;;;;;;4879354;29;20218;-75
2023/04/23 08:05:39;;;;;;;8.53;4.93;;;11.70;99.90;;;;;;4893977;29;20212;-78
2023/04/23 08:08:08;;;;;;;5.70;4.27;;;11.70;99.90;;;;;;4899349;29;20668;-78
2023/04/23 08:10:36;;;;;;;7.27;4.70;;;11.80;99.90;;;;;;4880557;29;20237;-78
2023/04/23 08:13:05;;;;;;;7.23;5.07;;;11.80;99.90;;;;;;4880044;29;20756;-78
2023/04/23 08:15:33;;;;;;;5.57;4.50;;;11.90;99.90;;;;;;4880409;29;20218;-77
2023/04/23 08:18:01;;;;;;;5.87;4.40;;;12.00;99.90;;;;;;4880308;29;20317;-75
2023/04/23 08:20:31;;;;;;;7.30;4.33;;;12.10;99.90;;;;;;4896191;29;20245;-74
2023/04/23 08:22:59;;;;;;;6.80;4.87;;;12.10;99.90;;;;;;4899745;29;20226;-74
2023/04/23 08:25:28;;;;;;;6.07;4.60;;;12.00;99.90;;;;;;4900245;29;20216;-75
2023/04/23 08:27:56;;;;;;;6.80;4.53;;;12.10;99.90;;;;;;4890053;29;20218;-76
2023/04/23 08:30:24;;;;;;;5.70;4.43;;;12.10;99.90;;;;;;4881229;29;20237;-74
2023/04/23 08:32:53;;;;;;;10.40;4.83;;;12.10;99.90;;;;;;4886006;29;20305;-76
2023/04/23 08:35:22;;;;;;;6.80;4.47;;;12.20;99.90;;;;;;4902534;29;20633;-76
2023/04/23 08:37:51;;;;;;;5.87;4.70;;;12.10;99.90;;;;;;4895997;29;20657;-77
2023/04/23 08:40:20;;;;;;;6.67;4.60;;;12.20;99.90;;;;;;4893220;29;20198;-78
2023/04/23 08:42:50;;;;;;;7.00;5.90;;;12.30;99.90;;;;;;4892481;29;20210;-79
2023/04/23 08:45:19;;;;;;;5.47;4.47;;;12.40;99.90;;;;;;4893705;29;20309;-78
2023/04/23 08:47:47;;;;;;;4.97;4.47;;;12.40;99.90;;;;;;4898104;29;20213;-77
2023/04/23 08:50:18;;;;;;;7.13;4.70;;;12.40;99.90;;;;;;4893881;29;20687;-78
2023/04/23 08:52:50;;;;;;;6.60;4.37;;;12.40;99.90;;;;;;4891107;29;20209;-75
2023/04/23 08:55:21;;;;;;;4.70;4.10;;;12.40;99.90;;;;;;4896571;29;20630;-74
2023/04/23 08:57:50;;;;;;;5.13;4.17;;;12.30;99.90;;;;;;4879152;29;20277;-77
2023/04/23 09:00:20;;;;;;;6.70;4.83;;;12.40;99.90;;;;;;4888827;29;20231;-77
2023/04/23 09:02:49;;;;;;;5.47;4.33;;;12.40;99.90;;;;;;4895038;29;20213;-76
2023/04/23 09:05:18;;;;;;;6.17;5.13;;;12.50;99.90;;;;;;4897927;29;20205;-75
2023/04/23 09:07:46;;;;;;;6.07;4.50;;;12.50;99.90;;;;;;4897939;29;20688;-78
2023/04/23 09:10:14;;;;;;;5.93;4.80;;;12.70;99.90;;;;;;4881510;29;20321;-75
2023/04/23 09:12:46;;;;;;;4.73;4.17;;;12.70;99.90;;;;;;4878704;29;20214;-76
2023/04/23 09:15:17;;;;;;;4.67;3.90;;;12.80;99.90;;;;;;4878992;29;20218;-76
2023/04/23 09:17:47;;;;;;;5.57;3.90;;;13.00;99.90;;;;;;4879803;29;20205;-76
2023/04/23 09:20:15;;;;;;;4.57;3.63;;;13.60;99.90;;;;;;4879549;29;20221;-75
2023/04/23 09:22:45;;;;;;;3.93;2.73;;;14.70;99.90;;;;;;4879272;29;20248;-75
2023/04/23 09:25:16;;;;;;;2.60;2.40;;;15.60;99.90;;;;;;4879495;29;20301;-74
2023/04/23 09:27:47;;;;;;;2.60;2.40;;;16.40;99.90;;;;;;4879335;29;20648;-75
2023/04/23 09:30:16;;;;;;;2.60;2.40;;;16.90;99.90;;;;;;4879584;29;20230;-76
2023/04/23 09:32:46;;;;;;;3.47;2.40;;;17.20;99.90;;;;;;4891739;29;20217;-77
2023/04/23 09:35:18;;;;;;;2.30;1.83;;;17.20;99.90;;;;;;4884185;29;20242;-76
2023/04/23 09:37:48;;;;;;;3.57;3.00;;;17.10;99.90;;;;;;4878804;29;20194;-76
2023/04/23 09:40:18;;;;;;;2.80;2.40;;;17.40;99.90;;;;;;4879636;29;20217;-76
2023/04/23 09:42:51;;;;;;;2.53;2.30;;;17.40;99.90;;;;;;4878480;29;20225;-75
2023/04/23 09:45:19;;;;;;;3.27;2.70;;;17.00;99.90;;;;;;4889000;29;20232;-76
2023/04/23 09:47:52;;;;;;;3.63;2.53;;;17.30;99.90;;;;;;4897551;29;20589;-77
2023/04/23 09:50:31;;;;;;;3.67;2.63;;;17.00;99.90;;;;;;4897097;29;20313;-73
2023/04/23 09:52:59;;;;;;;3.97;3.00;;;17.70;99.90;;;;;;4887990;29;20214;-72
2023/04/23 09:55:33;;;;;;;3.73;2.93;;;18.40;99.90;;;;;;4890756;29;20312;-72
2023/04/23 09:58:04;;;;;;;4.83;2.90;;;18.60;99.90;;;;;;4894939;29;20644;-74
2023/04/23 10:00:36;;;;;;;3.27;2.80;;;18.50;99.90;;;;;;4895450;29;20206;-74
2023/04/23 10:03:07;;;;;;;2.77;2.37;;;18.00;99.90;;;;;;4892093;29;20475;-74
2023/04/23 10:05:39;;;;;;;2.37;2.17;;;18.00;99.90;;;;;;4881856;29;20685;-75
2023/04/23 10:08:27;;;;;;;3.03;2.20;;;18.00;99.90;;;;;;4884310;29;20228;-74
2023/04/23 10:10:55;;;;;;;3.23;2.03;;;18.30;99.90;;;;;;4887850;29;20226;-74
2023/04/23 10:13:42;;;;;;;4.67;2.40;;;18.40;99.90;;;;;;4888945;29;20213;-76
2023/04/23 10:16:10;;;;;;;2.10;1.80;;;18.10;99.90;;;;;;4895725;29;20813;-74
2023/04/23 10:18:54;;;;;;;3.40;2.10;;;18.00;99.90;;;;;;4895522;29;20419;-73
2023/04/23 10:21:27;;;;;;;2.03;1.87;;;17.50;99.90;;;;;;4892454;29;20331;-73
2023/04/23 10:24:09;;;;;;;4.87;4.07;;;17.50;99.90;;;;;;4886458;29;20213;-76
2023/04/23 10:26:39;;;;;;;2.27;1.80;;;17.50;99.90;;;;;;4895694;29;20189;-74
2023/04/23 10:29:13;;;;;;;3.00;1.77;;;17.70;99.90;;;;;;4897170;29;20308;-75
2023/04/23 10:31:42;;;;;;;2.40;2.00;;;17.70;99.90;;;;;;4895090;29;20747;-72
2023/04/23 10:34:35;;;;;;;2.13;1.90;;;17.80;99.90;;;;;;4896566;29;20285;-74
2023/04/23 10:37:03;;;;;;;2.53;2.33;;;17.80;99.90;;;;;;4896903;29;20269;-73
2023/04/23 10:39:34;;;;;;;2.50;2.23;;;17.80;99.90;;;;;;4897354;29;20220;-74
2023/04/23 10:42:04;;;;;;;2.23;2.10;;;17.50;99.90;;;;;;4888719;29;20206;-75
2023/04/23 10:44:38;;;;;;;2.80;2.30;;;17.20;99.90;;;;;;4896540;29;20309;-72
2023/04/23 10:47:13;;;;;;;3.50;2.50;;;17.20;99.90;;;;;;4896915;29;20674;-74
2023/04/23 10:49:41;;;;;;;2.57;2.00;;;17.00;99.90;;;;;;4889027;29;20313;-76
2023/04/23 10:52:13;;;;;;;1.97;1.87;;;17.00;99.90;;;;;;4878490;29;20233;-73
2023/04/23 10:54:49;;;;;;;2.47;2.00;;;17.10;99.90;;;;;;4879025;29;20224;-73
2023/04/23 10:57:18;;;;;;;6.43;2.17;;;17.30;99.90;;;;;;4894163;29;20616;-73
2023/04/23 10:59:55;;;;;;;3.97;2.00;;;17.50;99.90;;;;;;4914122;29;20691;-72
2023/04/23 11:02:24;;;;;;;2.67;2.00;;;17.50;99.90;;;;;;4919479;29;20292;-77
2023/04/23 11:04:55;;;;;;;3.37;2.70;;;17.70;99.90;;;;;;4914646;29;20297;-74
2023/04/23 11:07:27;;;;;;;2.33;2.03;;;17.70;99.90;;;;;;4881864;29;20214;-72
2023/04/23 11:09:58;;;;;;;2.37;2.17;;;17.80;99.90;;;;;;4898098;29;20217;-73
2023/04/23 11:12:35;;;;;;;2.63;2.23;;;17.90;99.90;;;;;;4911071;29;20264;-73
2023/04/23 11:15:12;;;;;;;2.03;1.93;;;17.90;99.90;;;;;;4906851;29;20253;-74
2023/04/23 11:18:00;;;;;;;2.03;1.83;;;18.40;99.90;;;;;;4890910;29;20237;-72
2023/04/23 11:20:28;;;;;;;2.33;1.70;;;18.60;99.90;;;;;;4882255;29;20604;-75
2023/04/23 11:22:57;;;;;;;2.37;2.17;;;18.80;99.90;;;;;;4893495;29;20217;-74
2023/04/23 11:25:27;;;;;;;2.07;1.87;;;19.00;99.90;;;;;;4886233;29;20210;-75
2023/04/23 11:27:57;;;;;;;2.40;2.00;;;18.70;99.90;;;;;;4900729;29;20284;-73
2023/04/23 11:30:28;;;;;;;2.57;2.20;;;18.30;99.90;;;;;;4900038;29;20228;-72
2023/04/23 11:32:58;;;;;;;2.00;1.87;;;18.20;99.90;;;;;;4900463;29;20253;-75
2023/04/23 11:35:29;;;;;;;1.90;1.80;;;18.60;99.90;;;;;;4886910;29;20218;-75
2023/04/23 11:37:57;;;;;;;2.93;1.87;;;18.90;99.90;;;;;;4881496;29;20221;-76
2023/04/23 11:40:29;;;;;;;4.03;1.80;;;19.00;99.90;;;;;;4896972;29;20217;-76
2023/04/23 11:42:57;;;;;;;2.83;2.37;;;19.60;99.90;;;;;;4887898;29;20309;-77
2023/04/23 11:45:29;;;;;;;2.73;2.00;;;20.00;99.90;;;;;;4894526;29;20209;-74
2023/04/23 11:47:59;;;;;;;22.83;13.27;;;19.90;99.90;;;;;;4918547;29;20215;-74
2023/04/23 11:50:29;;;;;;;22.50;14.20;;;20.00;99.90;;;;;;4896258;29;20237;-76
2023/04/23 11:52:57;;;;;;;50.50;29.07;;;19.90;99.90;;;;;;4880653;29;20337;-74
2023/04/23 11:55:25;;;;;;;24.20;14.43;;;20.20;99.90;;;;;;4881093;29;20218;-75
2023/04/23 11:57:54;;;;;;;2.80;1.97;;;20.60;99.90;;;;;;4899275;29;20218;-76
2023/04/23 12:00:25;;;;;;;2.43;1.80;;;20.40;99.90;;;;;;4887120;29;20297;-76
2023/04/23 12:02:56;;;;;;;3.37;2.17;;;20.20;99.90;;;;;;4880924;29;20194;-78
2023/04/23 12:05:28;;;;;;;4.70;2.90;;;19.80;99.90;;;;;;4880729;29;20218;-74
2023/04/23 12:08:07;;;;;;;3.13;2.30;;;19.40;99.90;;;;;;4880341;29;20226;-75
2023/04/23 12:10:42;;;;;;;1.77;1.63;;;19.20;99.90;;;;;;4902186;29;20616;-76
2023/04/23 12:13:14;;;;;;;3.17;1.80;;;19.60;99.90;;;;;;4918936;29;20256;-75
2023/04/23 12:15:47;;;;;;;3.80;2.47;;;19.70;99.90;;;;;;4900498;29;20200;-76
2023/04/23 12:18:17;;;;;;;2.20;1.60;;;20.20;99.90;;;;;;4882977;29;20685;-76
2023/04/23 12:20:45;;;;;;;3.03;2.00;;;20.20;99.90;;;;;;4880606;29;20210;-76
2023/04/23 12:23:14;;;;;;;6.40;2.40;;;20.00;99.90;;;;;;4880453;29;20213;-73
2023/04/23 12:25:42;;;;;;;2.33;1.90;;;20.10;99.90;;;;;;4880315;29;20314;-75
2023/04/23 12:28:10;;;;;;;6.97;2.67;;;19.90;99.90;;;;;;4890422;29;20285;-73
2023/04/23 12:30:43;;;;;;;2.10;1.90;;;20.40;99.90;;;;;;4898888;29;20225;-75
2023/04/23 12:33:12;;;;;;;2.97;2.00;;;20.60;99.90;;;;;;4884668;29;20278;-75
2023/04/23 12:35:42;;;;;;;2.53;1.90;;;20.50;99.90;;;;;;4882152;29;20289;-75
2023/04/23 12:38:22;;;;;;;3.43;2.33;;;20.60;99.90;;;;;;4893919;29;20212;-74
2023/04/23 12:40:54;;;;;;;3.83;2.37;;;20.40;99.90;;;;;;4883489;29;20756;-76
2023/04/23 12:43:22;;;;;;;3.23;2.00;;;20.10;99.90;;;;;;4880140;29;20300;-73
2023/04/23 12:45:51;;;;;;;4.63;2.20;;;20.20;99.90;;;;;;4880001;29;20215;-71
2023/04/23 12:48:19;;;;;;;2.53;2.33;;;20.30;99.90;;;;;;4879620;29;20248;-73
2023/04/23 12:50:49;;;;;;;2.63;2.37;;;20.20;99.90;;;;;;4880598;29;20222;-73
2023/04/23 12:53:18;;;;;;;2.67;2.30;;;20.20;99.90;;;;;;4879622;29;20325;-74
2023/04/23 12:55:47;;;;;;;2.90;2.60;;;20.10;99.90;;;;;;4879778;29;20658;-74
2023/04/23 12:58:15;;;;;;;4.40;2.20;;;19.60;99.90;;;;;;4879824;29;20290;-73